sensor_id;sensor_type;location;lat;lon;timestamp;pressure;altitude;pressure_sealevel;temperature;humidity
32933;BME280;19444;50.518;10.870;2022-12-26T00:01:51;96294.75;;;7.77;100.00
32933;BME280;19444;50.518;10.870;2022-12-26T00:04:48;96290.81;;;7.75;100.00
32933;BME280;19444;50.518;10.870;2022-12-26T00:07:49;96287.66;;;7.73;100.00
32933;BME280;19444;50.518;10.870;2022-12-26T00:10:46;96273.63;;;7.67;100.00
32933;BME280;19444;50.518;10.870;2022-12-26T00:13:43;96277.78;;;7.73;100.00
32933;BME280;19444;50.518;10.870;2022-12-26T00:16:42;96280.94;;;7.61;100.00
32933;BME280;19444;50.518;10.870;2022-12-26T00:19:40;96290.56;;;7.44;100.00
32933;BME280;19444;50.518;10.870;2022-12-26T00:22:37;96295.66;;;7.40;100.00
32933;BME280;19444;50.518;10.870;2022-12-26T00:25:33;96293.06;;;7.54;100.00
32933;BME280;19444;50.518;10.870;2022-12-26T00:28:30;96289.91;;;7.52;100.00
32933;BME280;19444;50.518;10.870;2022-12-26T00:31:30;96286.63;;;7.55;100.00
32933;BME280;19444;50.518;10.870;2022-12-26T00:34:28;96279.84;;;7.62;100.00
32933;BME280;19444;50.518;10.870;2022-12-26T00:37:25;96273.50;;;7.58;100.00
32933;BME280;19444;50.518;10.870;2022-12-26T00:40:21;96270.63;;;7.55;100.00
32933;BME280;19444;50.518;10.870;2022-12-26T00:43:18;96283.25;;;7.49;100.00
32933;BME280;19444;50.518;10.870;2022-12-26T00:46:16;96274.69;;;7.66;100.00
32933;BME280;19444;50.518;10.870;2022-12-26T00:49:13;96275.78;;;7.51;100.00
32933;BME280;19444;50.518;10.870;2022-12-26T00:52:10;96271.84;;;7.62;100.00
32933;BME280;19444;50.518;10.870;2022-12-26T00:55:07;96262.16;;;7.53;100.00
32933;BME280;19444;50.518;10.870;2022-12-26T00:58:04;96271.34;;;7.60;100.00
32933;BME280;19444;50.518;10.870;2022-12-26T01:01:13;96267.97;;;7.55;100.00
32933;BME280;19444;50.518;10.870;2022-12-26T01:04:10;96269.25;;;7.57;100.00
32933;BME280;19444;50.518;10.870;2022-12-26T01:07:07;96271.84;;;7.62;100.00
32933;BME280;19444;50.518;10.870;2022-12-26T01:10:06;96284.81;;;7.69;100.00
32933;BME280;19444;50.518;10.870;2022-12-26T01:13:03;96274.81;;;7.61;100.00
32933;BME280;19444;50.518;10.870;2022-12-26T01:16:01;96284.94;;;7.59;100.00
32933;BME280;19444;50.518;10.870;2022-12-26T01:18:58;96280.63;;;7.63;100.00
32933;BME280;19444;50.518;10.870;2022-12-26T01:21:55;96273.91;;;7.65;100.00
32933;BME280;19444;50.518;10.870;2022-12-26T01:24:58;96278.38;;;7.70;100.00
32933;BME280;19444;50.518;10.870;2022-12-26T01:27:54;96272.94;;;7.75;100.00
32933;BME280;19444;50.518;10.870;2022-12-26T01:30:51;96267.72;;;7.84;100.00
32933;BME280;19444;50.518;10.870;2022-12-26T01:33:48;96259.09;;;7.73;100.00
32933;BME280;19444;50.518;10.870;2022-12-26T01:36:45;96270.47;;;7.65;100.00
32933;BME280;19444;50.518;10.870;2022-12-26T01:39:42;96264.25;;;7.69;100.00
32933;BME280;19444;50.518;10.870;2022-12-26T01:42:40;96264.03;;;7.66;100.00
32933;BME280;19444;50.518;10.870;2022-12-26T01:45:37;96261.84;;;7.68;100.00
32933;BME280;19444;50.518;10.870;2022-12-26T01:48:34;96258.59;;;7.57;100.00
32933;BME280;19444;50.518;10.870;2022-12-26T01:51:37;96251.25;;;7.49;100.00
32933;BME280;19444;50.518;10.870;2022-12-26T01:54:37;96259.41;;;7.72;100.00
32933;BME280;19444;50.518;10.870;2022-12-26T01:57:45;96253.81;;;7.87;100.00
32933;BME280;19444;50.518;10.870;2022-12-26T02:00:43;96251.41;;;7.85;100.00
32933;BME280;19444;50.518;10.870;2022-12-26T02:03:43;96257.53;;;7.86;100.00
32933;BME280;19444;50.518;10.870;2022-12-26T02:07:02;96245.59;;;7.83;100.00
32933;BME280;19444;50.518;10.870;2022-12-26T02:09:59;96257.84;;;7.70;100.00
32933;BME280;19444;50.518;10.870;2022-12-26T02:12:57;96256.25;;;7.83;100.00
32933;BME280;19444;50.518;10.870;2022-12-26T02:15:55;96255.28;;;7.79;100.00
32933;BME280;19444;50.518;10.870;2022-12-26T02:18:52;96260.50;;;7.84;100.00
32933;BME280;19444;50.518;10.870;2022-12-26T02:22:17;96261.47;;;7.75;100.00
32933;BME280;19444;50.518;10.870;2022-12-26T02:25:56;96272.56;;;7.82;100.00
32933;BME280;19444;50.518;10.870;2022-12-26T02:33:19;96265.06;;;7.97;100.00
32933;BME280;19444;50.518;10.870;2022-12-26T02:36:48;96254.66;;;7.82;100.00
32933;BME280;19444;50.518;10.870;2022-12-26T02:46:50;96250.94;;;7.97;100.00
32933;BME280;19444;50.518;10.870;2022-12-26T02:50:32;96244.19;;;8.13;100.00
32933;BME280;19444;50.518;10.870;2022-12-26T02:54:22;96244.09;;;8.18;100.00
32933;BME280;19444;50.518;10.870;2022-12-26T02:58:01;96255.59;;;8.05;100.00
32933;BME280;19444;50.518;10.870;2022-12-26T03:01:37;96257.84;;;8.12;100.00
32933;BME280;19444;50.518;10.870;2022-12-26T03:04:55;96262.78;;;8.18;100.00
32933;BME280;19444;50.518;10.870;2022-12-26T03:08:34;96263.97;;;8.12;100.00
32933;BME280;19444;50.518;10.870;2022-12-26T03:12:00;96276.13;;;8.18;100.00
32933;BME280;19444;50.518;10.870;2022-12-26T03:15:20;96282.16;;;8.10;100.00
32933;BME280;19444;50.518;10.870;2022-12-26T03:18:18;96277.81;;;8.14;100.00
32933;BME280;19444;50.518;10.870;2022-12-26T03:21:42;96270.69;;;8.10;100.00
32933;BME280;19444;50.518;10.870;2022-12-26T03:24:40;96268.03;;;8.10;100.00
32933;BME280;19444;50.518;10.870;2022-12-26T03:27:56;96257.34;;;8.10;100.00
32933;BME280;19444;50.518;10.870;2022-12-26T03:30:56;96260.13;;;8.05;100.00
32933;BME280;19444;50.518;10.870;2022-12-26T03:34:05;96258.25;;;8.05;100.00
32933;BME280;19444;50.518;10.870;2022-12-26T03:37:41;96263.97;;;7.98;100.00
32933;BME280;19444;50.518;10.870;2022-12-26T03:41:19;96261.59;;;8.11;100.00
32933;BME280;19444;50.518;10.870;2022-12-26T03:45:02;96286.81;;;8.05;100.00
32933;BME280;19444;50.518;10.870;2022-12-26T03:48:56;96296.91;;;8.08;100.00
32933;BME280;19444;50.518;10.870;2022-12-26T03:52:58;96288.00;;;7.98;100.00
32933;BME280;19444;50.518;10.870;2022-12-26T03:56:34;96278.81;;;8.05;100.00
32933;BME280;19444;50.518;10.870;2022-12-26T04:00:09;96266.75;;;8.07;100.00
32933;BME280;19444;50.518;10.870;2022-12-26T04:03:28;96281.66;;;7.94;100.00
32933;BME280;19444;50.518;10.870;2022-12-26T04:07:19;96283.25;;;7.95;100.00
32933;BME280;19444;50.518;10.870;2022-12-26T04:10:56;96292.16;;;8.05;100.00
32933;BME280;19444;50.518;10.870;2022-12-26T04:17:48;96297.75;;;8.03;100.00
32933;BME280;19444;50.518;10.870;2022-12-26T04:21:20;96285.50;;;8.02;100.00
32933;BME280;19444;50.518;10.870;2022-12-26T04:25:11;96290.75;;;7.93;100.00
32933;BME280;19444;50.518;10.870;2022-12-26T04:28:47;96290.84;;;8.02;100.00
32933;BME280;19444;50.518;10.870;2022-12-26T04:32:17;96276.13;;;7.91;100.00
32933;BME280;19444;50.518;10.870;2022-12-26T04:35:58;96274.25;;;7.91;100.00
32933;BME280;19444;50.518;10.870;2022-12-26T04:39:20;96283.03;;;7.92;100.00
32933;BME280;19444;50.518;10.870;2022-12-26T04:42:40;96279.97;;;7.85;100.00
32933;BME280;19444;50.518;10.870;2022-12-26T04:46:19;96270.00;;;7.90;100.00
32933;BME280;19444;50.518;10.870;2022-12-26T04:49:19;96265.25;;;7.87;100.00
32933;BME280;19444;50.518;10.870;2022-12-26T04:52:34;96255.47;;;7.96;100.00
32933;BME280;19444;50.518;10.870;2022-12-26T04:55:49;96262.00;;;8.18;100.00
32933;BME280;19444;50.518;10.870;2022-12-26T04:58:46;96258.41;;;8.22;100.00
32933;BME280;19444;50.518;10.870;2022-12-26T05:01:43;96246.69;;;8.23;100.00
32933;BME280;19444;50.518;10.870;2022-12-26T05:04:59;96242.22;;;8.19;100.00
32933;BME280;19444;50.518;10.870;2022-12-26T05:08:40;96220.09;;;8.05;100.00
32933;BME280;19444;50.518;10.870;2022-12-26T05:11:56;96212.38;;;8.17;100.00
32933;BME280;19444;50.518;10.870;2022-12-26T05:14:53;96221.94;;;8.04;100.00
32933;BME280;19444;50.518;10.870;2022-12-26T05:17:50;96252.91;;;8.05;100.00
32933;BME280;19444;50.518;10.870;2022-12-26T05:21:13;96239.84;;;8.17;100.00
32933;BME280;19444;50.518;10.870;2022-12-26T05:24:36;96237.59;;;8.24;100.00
32933;BME280;19444;50.518;10.870;2022-12-26T05:27:53;96237.00;;;8.14;100.00
32933;BME280;19444;50.518;10.870;2022-12-26T05:31:14;96245.78;;;8.14;100.00
32933;BME280;19444;50.518;10.870;2022-12-26T05:34:11;96248.13;;;8.30;100.00
32933;BME280;19444;50.518;10.870;2022-12-26T05:37:11;96247.66;;;8.27;100.00
32933;BME280;19444;50.518;10.870;2022-12-26T05:40:08;96253.78;;;8.28;100.00
32933;BME280;19444;50.518;10.870;2022-12-26T05:43:05;96250.94;;;8.24;100.00
32933;BME280;19444;50.518;10.870;2022-12-26T05:46:02;96250.13;;;8.24;100.00
32933;BME280;19444;50.518;10.870;2022-12-26T05:48:59;96257.75;;;8.17;100.00
32933;BME280;19444;50.518;10.870;2022-12-26T05:51:56;96263.28;;;8.20;100.00
32933;BME280;19444;50.518;10.870;2022-12-26T05:54:53;96273.16;;;8.20;100.00
32933;BME280;19444;50.518;10.870;2022-12-26T05:57:50;96270.38;;;8.11;100.00
32933;BME280;19444;50.518;10.870;2022-12-26T06:00:47;96264.84;;;8.21;100.00
32933;BME280;19444;50.518;10.870;2022-12-26T06:03:53;96265.25;;;8.28;100.00
32933;BME280;19444;50.518;10.870;2022-12-26T06:06:50;96268.31;;;8.22;100.00
32933;BME280;19444;50.518;10.870;2022-12-26T06:09:50;96264.75;;;8.26;100.00
32933;BME280;19444;50.518;10.870;2022-12-26T06:12:47;96270.78;;;8.18;100.00
32933;BME280;19444;50.518;10.870;2022-12-26T06:15:44;96255.25;;;8.20;100.00
32933;BME280;19444;50.518;10.870;2022-12-26T06:18:41;96259.63;;;8.16;100.00
32933;BME280;19444;50.518;10.870;2022-12-26T06:21:38;96261.41;;;8.07;100.00
32933;BME280;19444;50.518;10.870;2022-12-26T06:24:35;96258.72;;;8.21;100.00
32933;BME280;19444;50.518;10.870;2022-12-26T06:27:32;96268.03;;;8.23;100.00
32933;BME280;19444;50.518;10.870;2022-12-26T06:30:29;96271.97;;;8.26;100.00
32933;BME280;19444;50.518;10.870;2022-12-26T06:33:26;96279.78;;;8.22;100.00
32933;BME280;19444;50.518;10.870;2022-12-26T06:36:25;96274.94;;;8.24;100.00
32933;BME280;19444;50.518;10.870;2022-12-26T06:39:23;96270.09;;;8.26;100.00
32933;BME280;19444;50.518;10.870;2022-12-26T06:42:20;96267.81;;;8.20;100.00
32933;BME280;19444;50.518;10.870;2022-12-26T06:45:17;96273.06;;;8.25;100.00
32933;BME280;19444;50.518;10.870;2022-12-26T06:48:14;96265.94;;;8.20;100.00
32933;BME280;19444;50.518;10.870;2022-12-26T06:51:18;96268.81;;;8.24;100.00
32933;BME280;19444;50.518;10.870;2022-12-26T06:54:15;96282.34;;;8.27;100.00
32933;BME280;19444;50.518;10.870;2022-12-26T06:57:12;96272.47;;;8.28;100.00
32933;BME280;19444;50.518;10.870;2022-12-26T07:00:10;96292.84;;;8.24;100.00
32933;BME280;19444;50.518;10.870;2022-12-26T07:03:07;96297.66;;;8.22;100.00
32933;BME280;19444;50.518;10.870;2022-12-26T07:06:07;96303.63;;;8.19;100.00
32933;BME280;19444;50.518;10.870;2022-12-26T07:09:13;96287.59;;;8.05;100.00
32933;BME280;19444;50.518;10.870;2022-12-26T07:12:10;96275.03;;;8.19;100.00
32933;BME280;19444;50.518;10.870;2022-12-26T07:15:07;96275.16;;;8.14;100.00
32933;BME280;19444;50.518;10.870;2022-12-26T07:18:05;96280.69;;;8.18;100.00
32933;BME280;19444;50.518;10.870;2022-12-26T07:21:10;96266.94;;;8.11;100.00
32933;BME280;19444;50.518;10.870;2022-12-26T07:24:20;96280.69;;;8.18;100.00
32933;BME280;19444;50.518;10.870;2022-12-26T07:27:17;96294.44;;;8.25;100.00
32933;BME280;19444;50.518;10.870;2022-12-26T07:30:14;96314.28;;;8.19;100.00
32933;BME280;19444;50.518;10.870;2022-12-26T07:33:11;96316.16;;;8.18;100.00
32933;BME280;19444;50.518;10.870;2022-12-26T07:36:08;96305.19;;;8.20;100.00
32933;BME280;19444;50.518;10.870;2022-12-26T07:39:05;96298.56;;;8.17;100.00
32933;BME280;19444;50.518;10.870;2022-12-26T07:42:03;96298.16;;;8.10;100.00
32933;BME280;19444;50.518;10.870;2022-12-26T07:45:00;96309.06;;;8.14;100.00
32933;BME280;19444;50.518;10.870;2022-12-26T07:47:57;96321.22;;;8.06;100.00
32933;BME280;19444;50.518;10.870;2022-12-26T07:50:54;96309.25;;;8.17;100.00
32933;BME280;19444;50.518;10.870;2022-12-26T07:53:56;96318.66;;;8.15;100.00
32933;BME280;19444;50.518;10.870;2022-12-26T07:56:53;96318.66;;;8.15;100.00
32933;BME280;19444;50.518;10.870;2022-12-26T08:00:10;96309.75;;;8.19;100.00
32933;BME280;19444;50.518;10.870;2022-12-26T08:03:08;96320.31;;;8.11;100.00
32933;BME280;19444;50.518;10.870;2022-12-26T08:06:05;96304.41;;;8.19;100.00
32933;BME280;19444;50.518;10.870;2022-12-26T08:09:03;96318.53;;;8.20;100.00
32933;BME280;19444;50.518;10.870;2022-12-26T08:12:00;96308.94;;;8.19;100.00
32933;BME280;19444;50.518;10.870;2022-12-26T08:14:57;96315.56;;;8.21;100.00
32933;BME280;19444;50.518;10.870;2022-12-26T08:17:54;96315.38;;;8.18;100.00
32933;BME280;19444;50.518;10.870;2022-12-26T08:20:51;96312.72;;;8.18;100.00
32933;BME280;19444;50.518;10.870;2022-12-26T08:23:48;96316.97;;;8.19;100.00
32933;BME280;19444;50.518;10.870;2022-12-26T08:26:45;96306.41;;;8.14;100.00
32933;BME280;19444;50.518;10.870;2022-12-26T08:29:42;96307.06;;;8.19;100.00
32933;BME280;19444;50.518;10.870;2022-12-26T08:32:39;96307.56;;;8.08;100.00
32933;BME280;19444;50.518;10.870;2022-12-26T08:35:42;96310.25;;;8.08;100.00
32933;BME280;19444;50.518;10.870;2022-12-26T08:38:39;96320.81;;;7.99;100.00
32933;BME280;19444;50.518;10.870;2022-12-26T08:41:36;96317.03;;;8.00;100.00
32933;BME280;19444;50.518;10.870;2022-12-26T08:44:33;96315.16;;;8.01;100.00
32933;BME280;19444;50.518;10.870;2022-12-26T08:47:30;96309.81;;;8.01;100.00
32933;BME280;19444;50.518;10.870;2022-12-26T08:50:27;96325.16;;;8.09;100.00
32933;BME280;19444;50.518;10.870;2022-12-26T08:53:24;96323.88;;;8.06;100.00
32933;BME280;19444;50.518;10.870;2022-12-26T08:56:24;96323.47;;;7.99;100.00
32933;BME280;19444;50.518;10.870;2022-12-26T08:59:22;96329.28;;;8.01;100.00
32933;BME280;19444;50.518;10.870;2022-12-26T09:02:19;96327.41;;;8.02;100.00
32933;BME280;19444;50.518;10.870;2022-12-26T09:05:16;96329.09;;;7.97;100.00
32933;BME280;19444;50.518;10.870;2022-12-26T09:08:12;96333.06;;;8.00;100.00
32933;BME280;19444;50.518;10.870;2022-12-26T09:11:22;96321.41;;;7.96;100.00
32933;BME280;19444;50.518;10.870;2022-12-26T09:14:19;96329.41;;;7.96;100.00
32933;BME280;19444;50.518;10.870;2022-12-26T09:17:16;96329.19;;;7.92;100.00
32933;BME280;19444;50.518;10.870;2022-12-26T09:20:13;96327.41;;;8.02;100.00
32933;BME280;19444;50.518;10.870;2022-12-26T09:23:10;96339.28;;;7.95;100.00
32933;BME280;19444;50.518;10.870;2022-12-26T09:26:10;96326.03;;;8.04;100.00
32933;BME280;19444;50.518;10.870;2022-12-26T09:29:09;96334.22;;;7.94;100.00
32933;BME280;19444;50.518;10.870;2022-12-26T09:32:06;96331.56;;;7.94;100.00
32933;BME280;19444;50.518;10.870;2022-12-26T09:35:04;96329.69;;;7.94;100.00
32933;BME280;19444;50.518;10.870;2022-12-26T09:38:02;96334.75;;;7.96;100.00
32933;BME280;19444;50.518;10.870;2022-12-26T09:44:57;96333.25;;;8.04;100.00
32933;BME280;19444;50.518;10.870;2022-12-26T09:48:11;96338.47;;;7.95;100.00
32933;BME280;19444;50.518;10.870;2022-12-26T09:51:10;96347.28;;;7.95;100.00
32933;BME280;19444;50.518;10.870;2022-12-26T09:54:18;96342.81;;;7.91;100.00
32933;BME280;19444;50.518;10.870;2022-12-26T09:57:37;96348.88;;;7.96;100.00
32933;BME280;19444;50.518;10.870;2022-12-26T10:00:57;96339.97;;;7.87;100.00
32933;BME280;19444;50.518;10.870;2022-12-26T10:03:58;96360.13;;;7.93;100.00
32933;BME280;19444;50.518;10.870;2022-12-26T10:10:43;96378.50;;;7.95;100.00
32933;BME280;19444;50.518;10.870;2022-12-26T10:14:12;96370.50;;;7.95;100.00
32933;BME280;19444;50.518;10.870;2022-12-26T10:17:44;96363.91;;;8.06;100.00
32933;BME280;19444;50.518;10.870;2022-12-26T10:24:21;96346.81;;;8.07;100.00
32933;BME280;19444;50.518;10.870;2022-12-26T10:27:20;96344.44;;;8.06;100.00
32933;BME280;19444;50.518;10.870;2022-12-26T10:30:26;96355.69;;;8.03;100.00
32933;BME280;19444;50.518;10.870;2022-12-26T10:33:55;96358.47;;;8.11;100.00
32933;BME280;19444;50.518;10.870;2022-12-26T10:37:32;96360.72;;;8.04;100.00
32933;BME280;19444;50.518;10.870;2022-12-26T10:40:40;96357.00;;;8.05;100.00
32933;BME280;19444;50.518;10.870;2022-12-26T10:43:39;96363.41;;;8.04;100.00
32933;BME280;19444;50.518;10.870;2022-12-26T10:47:16;96371.31;;;7.95;100.00
32933;BME280;19444;50.518;10.870;2022-12-26T10:50:23;96372.00;;;8.01;100.00
32933;BME280;19444;50.518;10.870;2022-12-26T10:53:23;96354.47;;;7.95;100.00
32933;BME280;19444;50.518;10.870;2022-12-26T10:56:21;96349.44;;;7.93;100.00
32933;BME280;19444;50.518;10.870;2022-12-26T10:59:28;96366.66;;;7.87;100.00
32933;BME280;19444;50.518;10.870;2022-12-26T11:02:31;96370.88;;;7.88;100.00
32933;BME280;19444;50.518;10.870;2022-12-26T11:05:28;96362.28;;;7.91;100.00
32933;BME280;19444;50.518;10.870;2022-12-26T11:08:47;96364.47;;;7.89;100.00
32933;BME280;19444;50.518;10.870;2022-12-26T11:11:48;96380.84;;;7.83;100.00
32933;BME280;19444;50.518;10.870;2022-12-26T11:14:47;96363.97;;;7.87;100.00
32933;BME280;19444;50.518;10.870;2022-12-26T11:17:48;96379.13;;;7.73;100.00
32933;BME280;19444;50.518;10.870;2022-12-26T11:20:47;96367.31;;;7.79;100.00
32933;BME280;19444;50.518;10.870;2022-12-26T11:23:49;96360.09;;;7.80;100.00
32933;BME280;19444;50.518;10.870;2022-12-26T11:26:48;96351.88;;;7.76;100.00
32933;BME280;19444;50.518;10.870;2022-12-26T11:29:45;96357.63;;;7.83;100.00
32933;BME280;19444;50.518;10.870;2022-12-26T11:32:46;96346.09;;;7.88;100.00
32933;BME280;19444;50.518;10.870;2022-12-26T11:36:20;96358.41;;;7.84;100.00
32933;BME280;19444;50.518;10.870;2022-12-26T11:39:30;96363.69;;;7.89;100.00
32933;BME280;19444;50.518;10.870;2022-12-26T11:42:29;96361.00;;;7.89;100.00
32933;BME280;19444;50.518;10.870;2022-12-26T11:45:28;96366.13;;;7.85;100.00
32933;BME280;19444;50.518;10.870;2022-12-26T11:48:34;96361.31;;;7.87;100.00
32933;BME280;19444;50.518;10.870;2022-12-26T11:51:40;96357.38;;;7.98;100.00
32933;BME280;19444;50.518;10.870;2022-12-26T11:54:48;96373.16;;;7.95;100.00
32933;BME280;19444;50.518;10.870;2022-12-26T12:01:11;96361.63;;;7.99;100.00
32933;BME280;19444;50.518;10.870;2022-12-26T12:04:11;96355.56;;;7.94;100.00
32933;BME280;19444;50.518;10.870;2022-12-26T12:07:33;96360.72;;;8.04;100.00
32933;BME280;19444;50.518;10.870;2022-12-26T12:18:05;96352.94;;;8.08;100.00
32933;BME280;19444;50.518;10.870;2022-12-26T12:22:29;96349.59;;;8.16;100.00
32933;BME280;19444;50.518;10.870;2022-12-26T12:28:55;96346.25;;;8.24;100.00
32933;BME280;19444;50.518;10.870;2022-12-26T12:32:16;96357.19;;;8.22;100.00
32933;BME280;19444;50.518;10.870;2022-12-26T12:39:20;96345.72;;;8.22;100.00
32933;BME280;19444;50.518;10.870;2022-12-26T12:46:20;96348.88;;;8.10;100.00
32933;BME280;19444;50.518;10.870;2022-12-26T12:56:57;96357.56;;;8.02;100.00
32933;BME280;19444;50.518;10.870;2022-12-26T13:06:45;96353.53;;;8.05;100.00
32933;BME280;19444;50.518;10.870;2022-12-26T13:09:55;96355.22;;;8.14;100.00
32933;BME280;19444;50.518;10.870;2022-12-26T13:12:53;96353.06;;;8.16;100.00
32933;BME280;19444;50.518;10.870;2022-12-26T13:15:58;96359.19;;;8.17;100.00
32933;BME280;19444;50.518;10.870;2022-12-26T13:19:04;96343.84;;;8.09;100.00
32933;BME280;19444;50.518;10.870;2022-12-26T13:22:16;96340.38;;;8.08;100.00
32933;BME280;19444;50.518;10.870;2022-12-26T13:25:17;96340.97;;;8.05;100.00
32933;BME280;19444;50.518;10.870;2022-12-26T13:28:27;96338.09;;;8.02;100.00
32933;BME280;19444;50.518;10.870;2022-12-26T13:31:30;96335.91;;;8.04;100.00
32933;BME280;19444;50.518;10.870;2022-12-26T13:34:28;96339.00;;;8.11;100.00
32933;BME280;19444;50.518;10.870;2022-12-26T13:40:34;96339.47;;;7.99;100.00
32933;BME280;19444;50.518;10.870;2022-12-26T13:43:31;96351.34;;;8.07;100.00
32933;BME280;19444;50.518;10.870;2022-12-26T13:49:43;96349.66;;;7.97;100.00
32933;BME280;19444;50.518;10.870;2022-12-26T13:52:41;96340.47;;;8.03;100.00
32933;BME280;19444;50.518;10.870;2022-12-26T13:55:42;96342.16;;;7.99;100.00
32933;BME280;19444;50.518;10.870;2022-12-26T13:58:59;96342.34;;;8.03;100.00
32933;BME280;19444;50.518;10.870;2022-12-26T14:10:20;96332.56;;;7.98;100.00
32933;BME280;19444;50.518;10.870;2022-12-26T14:20:26;96345.31;;;7.87;100.00
32933;BME280;19444;50.518;10.870;2022-12-26T14:27:32;96353.78;;;7.89;100.00
32933;BME280;19444;50.518;10.870;2022-12-26T14:30:53;96360.78;;;7.85;100.00
32933;BME280;19444;50.518;10.870;2022-12-26T14:34:27;96358.63;;;7.87;100.00
32933;BME280;19444;50.518;10.870;2022-12-26T14:41:26;96341.31;;;7.85;100.00
32933;BME280;19444;50.518;10.870;2022-12-26T14:44:43;96341.44;;;7.80;100.00
32933;BME280;19444;50.518;10.870;2022-12-26T14:47:48;96349.31;;;7.85;100.00
32933;BME280;19444;50.518;10.870;2022-12-26T14:51:35;96338.66;;;7.85;100.00
32933;BME280;19444;50.518;10.870;2022-12-26T14:57:44;96341.91;;;7.82;100.00
32933;BME280;19444;50.518;10.870;2022-12-26T15:00:42;96347.31;;;7.77;100.00
32933;BME280;19444;50.518;10.870;2022-12-26T15:11:20;96350.72;;;7.82;100.00
32933;BME280;19444;50.518;10.870;2022-12-26T15:15:09;96348.41;;;7.76;100.00
32933;BME280;19444;50.518;10.870;2022-12-26T15:33:02;96357.19;;;7.62;100.00
32933;BME280;19444;50.518;10.870;2022-12-26T15:39:49;96360.81;;;7.53;100.00
32933;BME280;19444;50.518;10.870;2022-12-26T15:43:35;96366.72;;;7.31;100.00
32933;BME280;19444;50.518;10.870;2022-12-26T15:46:42;96363.72;;;7.19;100.00
32933;BME280;19444;50.518;10.870;2022-12-26T15:50:18;96355.38;;;7.06;100.00
32933;BME280;19444;50.518;10.870;2022-12-26T15:57:48;96372.53;;;6.76;100.00
32933;BME280;19444;50.518;10.870;2022-12-26T16:00:52;96389.19;;;6.87;100.00
32933;BME280;19444;50.518;10.870;2022-12-26T16:03:53;96378.22;;;6.70;100.00
32933;BME280;19444;50.518;10.870;2022-12-26T16:07:41;96391.81;;;6.68;100.00
32933;BME280;19444;50.518;10.870;2022-12-26T16:10:42;96388.38;;;6.68;100.00
32933;BME280;19444;50.518;10.870;2022-12-26T16:14:08;96379.34;;;6.64;100.00
32933;BME280;19444;50.518;10.870;2022-12-26T16:23:45;96385.59;;;6.54;100.00
32933;BME280;19444;50.518;10.870;2022-12-26T16:26:44;96386.16;;;6.51;100.00
32933;BME280;19444;50.518;10.870;2022-12-26T16:29:55;96383.09;;;6.39;100.00
32933;BME280;19444;50.518;10.870;2022-12-26T16:32:52;96382.31;;;6.38;100.00
32933;BME280;19444;50.518;10.870;2022-12-26T16:35:50;96382.53;;;6.42;100.00
32933;BME280;19444;50.518;10.870;2022-12-26T16:38:55;96375.72;;;6.31;100.00
32933;BME280;19444;50.518;10.870;2022-12-26T16:42:06;96378.81;;;6.43;100.00
32933;BME280;19444;50.518;10.870;2022-12-26T16:45:19;96385.22;;;6.42;100.00
32933;BME280;19444;50.518;10.870;2022-12-26T16:48:20;96378.16;;;6.27;100.00
32933;BME280;19444;50.518;10.870;2022-12-26T16:51:46;96386.53;;;6.39;100.00
32933;BME280;19444;50.518;10.870;2022-12-26T16:54:43;96380.00;;;6.32;100.00
32933;BME280;19444;50.518;10.870;2022-12-26T16:57:40;96384.06;;;6.24;100.00
32933;BME280;19444;50.518;10.870;2022-12-26T17:00:38;96374.72;;;6.26;100.00
32933;BME280;19444;50.518;10.870;2022-12-26T17:07:02;96375.28;;;6.23;100.00
32933;BME280;19444;50.518;10.870;2022-12-26T17:10:01;96373.59;;;6.33;100.00
32933;BME280;19444;50.518;10.870;2022-12-26T17:13:05;96374.69;;;6.32;100.00
32933;BME280;19444;50.518;10.870;2022-12-26T17:16:07;96377.06;;;6.33;100.00
32933;BME280;19444;50.518;10.870;2022-12-26T17:19:20;96377.59;;;6.30;100.00
32933;BME280;19444;50.518;10.870;2022-12-26T17:22:33;96385.31;;;6.32;100.00
32933;BME280;19444;50.518;10.870;2022-12-26T17:25:32;96383.16;;;6.34;100.00
32933;BME280;19444;50.518;10.870;2022-12-26T17:28:29;96386.31;;;6.36;100.00
32933;BME280;19444;50.518;10.870;2022-12-26T17:31:42;96373.06;;;6.31;100.00
32933;BME280;19444;50.518;10.870;2022-12-26T17:34:40;96378.84;;;6.38;100.00
32933;BME280;19444;50.518;10.870;2022-12-26T17:37:38;96379.75;;;6.52;100.00
32933;BME280;19444;50.518;10.870;2022-12-26T17:40:38;96373.31;;;6.34;100.00
32933;BME280;19444;50.518;10.870;2022-12-26T17:43:39;96372.50;;;6.34;100.00
32933;BME280;19444;50.518;10.870;2022-12-26T17:46:36;96374.28;;;6.43;100.00
32933;BME280;19444;50.518;10.870;2022-12-26T17:49:33;96377.50;;;6.40;100.00
32933;BME280;19444;50.518;10.870;2022-12-26T17:52:30;96375.09;;;6.39;100.00
32933;BME280;19444;50.518;10.870;2022-12-26T17:55:28;96372.81;;;6.32;100.00
32933;BME280;19444;50.518;10.870;2022-12-26T17:58:25;96377.78;;;6.39;100.00
32933;BME280;19444;50.518;10.870;2022-12-26T18:01:22;96376.59;;;6.26;100.00
32933;BME280;19444;50.518;10.870;2022-12-26T18:04:19;96383.63;;;6.41;100.00
32933;BME280;19444;50.518;10.870;2022-12-26T18:07:23;96386.91;;;6.33;100.00
32933;BME280;19444;50.518;10.870;2022-12-26T18:10:32;96387.69;;;6.33;100.00
32933;BME280;19444;50.518;10.870;2022-12-26T18:13:29;96387.22;;;6.26;100.00
32933;BME280;19444;50.518;10.870;2022-12-26T18:16:26;96388.25;;;6.30;100.00
32933;BME280;19444;50.518;10.870;2022-12-26T18:19:27;96401.78;;;6.34;100.00
32933;BME280;19444;50.518;10.870;2022-12-26T18:22:24;96409.50;;;6.35;100.00
32933;BME280;19444;50.518;10.870;2022-12-26T18:25:23;96419.91;;;6.32;100.00
32933;BME280;19444;50.518;10.870;2022-12-26T18:28:21;96449.19;;;6.32;100.00
32933;BME280;19444;50.518;10.870;2022-12-26T18:31:18;96478.41;;;6.37;100.00